Malcolm Miller — 2INC6 — position and weather

sailwx.info

Track history (hours):
 
Tides and Currents Weather Stations Pressure Air Temp Water Temp Dewpoint Dewpoint Depression Visibility Wind Speed Wind Dir Waves Ship Positions

Malcolm Miller

Last reported at 2017-Oct-15 07:09 UTC. Time now 2017-Oct-20 19:34 UTC.
Position N 35°31' E 024°32'.

Length 47 m; draft 5 m.

Type: Sailing vessel. MMSI: 235111139.

Date/timePositionNaut miles runAvg speedWind from/ knotsBaromVisibWave heightAir tempDewpointWater temp
2017-Oct-15 07:09N 35°31' E 024°32'1 5.7
2017-Oct-15 07:00N 35°31' E 024°31'5 8.1
2017-Oct-15 06:26N 35°32' E 024°26'3 6.4
2017-Oct-15 06:00N 35°32' E 024°22'  
2017-Oct-10 20:23N 37°51' E 015°58'4 6.7
2017-Oct-10 19:47N 37°52' E 015°53'5 6.6
2017-Oct-10 19:00N 37°54' E 015°47'33 5.9
2017-Oct-10 13:24N 38°22' E 015°24'22 2.2
2017-Oct-10 03:35N 38°29' E 014°58'0 0.0
2017-Oct-10 03:08N 38°29' E 014°58'0 0.1
2017-Oct-10 02:53N 38°29' E 014°58'0 0.0
2017-Oct-10 02:26N 38°29' E 014°58'0 0.1
2017-Oct-10 00:44N 38°28' E 014°57'0 0.0
2017-Oct-09 21:42N 38°28' E 014°57'0 2.4
2017-Oct-09 21:29N 38°28' E 014°58'3 5.0
2017-Oct-09 20:53N 38°26' E 014°55'41 6.3
2017-Oct-09 14:24N 38°28' E 014°02'4 7.0
2017-Oct-09 13:47N 38°29' E 013°57'2 5.8
2017-Oct-09 13:27N 38°30' E 013°55'3 5.2
2017-Oct-09 12:51N 38°30' E 013°51'2 5.2
2017-Oct-09 12:30N 38°31' E 013°48'3 6.6
2017-Oct-09 12:00N 38°31' E 013°44'4 7.8
2017-Oct-09 11:26N 38°32' E 013°39'3 7.3
2017-Oct-09 11:00N 38°33' E 013°35'4 7.8
2017-Oct-09 10:28N 38°34' E 013°30'4 8.1
2017-Oct-09 10:00N 38°34' E 013°25'3 6.8
2017-Oct-09 09:30N 38°35' E 013°21'177 7.9
2017-Oct-08 11:01N 39°03' E 009°36'2 6.9
2017-Oct-08 10:43N 39°04' E 009°33'2 7.4
2017-Oct-08 10:29N 39°04' E 009°31'4 7.6
2017-Oct-08 10:00N 39°05' E 009°26'4 7.7
2017-Oct-08 09:29N 39°06' E 009°22'4 7.6
2017-Oct-08 09:00N 39°07' E 009°17'4 7.1
2017-Oct-08 08:30N 39°09' E 009°13'4 7.4
2017-Oct-08 08:00N 39°10' E 009°08'3 6.1
2017-Oct-08 07:30N 39°13' E 009°07'0 0.2
2017-Oct-08 06:58N 39°13' E 009°07'0 0.0
2017-Oct-08 06:29N 39°13' E 009°07'0 0.0
2017-Oct-08 06:00N 39°13' E 009°07'0 0.0
2017-Oct-08 05:29N 39°13' E 009°07'0 0.0
2017-Oct-08 05:00N 39°13' E 009°07'0 0.0
2017-Oct-08 04:27N 39°13' E 009°07'0 0.0
2017-Oct-08 04:01N 39°13' E 009°07'0 0.0
2017-Oct-08 03:27N 39°13' E 009°07'0 0.0
2017-Oct-08 02:58N 39°13' E 009°07'0 0.0
2017-Oct-08 02:26N 39°13' E 009°07'0 0.0
2017-Oct-08 01:57N 39°13' E 009°07'0 0.0
2017-Oct-08 01:28N 39°13' E 009°07'0 0.0
2017-Oct-08 00:58N 39°13' E 009°07'0 0.0
2017-Oct-08 00:28N 39°13' E 009°07'0 0.0
2017-Oct-07 23:58N 39°13' E 009°07'0 0.0
2017-Oct-07 23:28N 39°13' E 009°07'0 0.0
2017-Oct-07 22:58N 39°13' E 009°07'0 0.0
2017-Oct-07 22:28N 39°13' E 009°07'0 0.0
2017-Oct-07 21:58N 39°13' E 009°07'0 0.0
2017-Oct-07 21:27N 39°13' E 009°07'0 0.0
2017-Oct-07 20:52N 39°13' E 009°07'0 0.0
2017-Oct-07 20:26N 39°13' E 009°07'0 0.0
2017-Oct-07 19:56N 39°13' E 009°07'0 0.0
2017-Oct-07 19:22N 39°13' E 009°07'0 0.0
2017-Oct-07 18:57N 39°13' E 009°07'0 0.0
2017-Oct-07 18:28N 39°13' E 009°07'0 0.0
2017-Oct-07 17:56N 39°13' E 009°07'0 0.0
2017-Oct-07 17:28N 39°13' E 009°07'0 0.0
2017-Oct-07 16:57N 39°13' E 009°07'0 0.0
2017-Oct-07 16:28N 39°13' E 009°07'0 0.0
2017-Oct-07 15:57N 39°13' E 009°07'0 0.0
2017-Oct-07 15:26N 39°13' E 009°07'0 0.0
2017-Oct-07 14:56N 39°13' E 009°07'0 0.0
2017-Oct-07 14:27N 39°13' E 009°07'0 0.0
2017-Oct-07 13:58N 39°13' E 009°07'0 0.0
2017-Oct-07 13:27N 39°13' E 009°07'0 0.0
2017-Oct-07 12:58N 39°13' E 009°07'0 0.0
2017-Oct-07 12:27N 39°13' E 009°07'0 0.0
2017-Oct-07 11:57N 39°13' E 009°07'0 0.0
2017-Oct-07 11:27N 39°13' E 009°07'0 0.0
2017-Oct-07 10:56N 39°13' E 009°07'0 0.0
2017-Oct-07 10:27N 39°13' E 009°07'0 0.0
2017-Oct-07 09:57N 39°13' E 009°07'0 0.0
2017-Oct-07 09:27N 39°13' E 009°07'0 0.0
2017-Oct-07 08:56N 39°13' E 009°07'0 0.0
2017-Oct-07 08:28N 39°13' E 009°07'0 0.0
2017-Oct-07 08:00N 39°13' E 009°07'0 0.0
2017-Oct-07 07:21N 39°13' E 009°07'0 0.0
2017-Oct-07 07:01N 39°13' E 009°07'0 0.0
2017-Oct-07 06:28N 39°13' E 009°07'0 0.0
2017-Oct-07 06:00N 39°13' E 009°07'0 0.0
2017-Oct-07 05:30N 39°13' E 009°07'0 0.0
2017-Oct-07 04:58N 39°13' E 009°07'0 0.0
2017-Oct-07 04:30N 39°13' E 009°07'0 0.0
2017-Oct-07 04:00N 39°13' E 009°07'0 0.0
2017-Oct-07 03:30N 39°13' E 009°07'0 0.0
2017-Oct-07 03:00N 39°13' E 009°07'0 0.0
2017-Oct-07 02:28N 39°13' E 009°07'0 0.0
2017-Oct-07 02:00N 39°13' E 009°07'0 0.0
2017-Oct-07 01:28N 39°13' E 009°07'0 0.0
2017-Oct-07 01:01N 39°13' E 009°07'0 0.0
2017-Oct-07 00:30N 39°13' E 009°07'0 0.0
2017-Oct-06 23:58N 39°13' E 009°07'0 0.0
2017-Oct-06 23:27N 39°13' E 009°07'0 0.0
2017-Oct-06 22:55N 39°13' E 009°07'0 0.0
2017-Oct-06 22:28N 39°13' E 009°07'0 0.0
2017-Oct-06 22:00N 39°13' E 009°07'0 0.0
2017-Oct-06 21:27N 39°13' E 009°07'0 0.0
2017-Oct-06 21:00N 39°13' E 009°07'0 0.0
2017-Oct-06 20:29N 39°13' E 009°07'0 0.0
2017-Oct-06 19:59N 39°13' E 009°07'0 0.0
2017-Oct-06 19:31N 39°13' E 009°07'0 0.0
2017-Oct-06 18:55N 39°13' E 009°07'0 0.0
2017-Oct-06 18:30N 39°13' E 009°07'0 0.0
2017-Oct-06 17:58N 39°13' E 009°07'0 0.0
2017-Oct-06 17:30N 39°13' E 009°07'0 0.0
2017-Oct-06 17:00N 39°13' E 009°07'0 0.0
2017-Oct-06 16:31N 39°13' E 009°07'0 0.0
2017-Oct-06 16:00N 39°13' E 009°07'0 0.0
2017-Oct-06 15:30N 39°13' E 009°07'0 0.0
2017-Oct-06 15:00N 39°13' E 009°07'0 0.0
2017-Oct-06 14:30N 39°13' E 009°07'0 0.0
2017-Oct-06 14:00N 39°13' E 009°07'0 0.0
2017-Oct-06 13:30N 39°13' E 009°07'0 0.0
2017-Oct-06 13:00N 39°13' E 009°07'0 0.0
2017-Oct-06 12:29N 39°13' E 009°07'0 0.0
2017-Oct-06 12:00N 39°13' E 009°07'0 0.2
2017-Oct-06 11:31N 39°13' E 009°07'3 5.1
2017-Oct-06 11:00N 39°10' E 009°07'3 5.9
2017-Oct-06 10:30N 39°07' E 009°07'3 6.1
2017-Oct-06 10:01N 39°04' E 009°06'4 7.5
2017-Oct-06 09:29N 39°01' E 009°04'4 6.8
2017-Oct-06 08:58N 38°58' E 009°01'3 6.4
2017-Oct-06 08:31N 38°56' E 008°58'9 7.7
2017-Oct-06 07:20N 38°51' E 008°49'  
Track history (hours):
 
Tides and Currents Weather Stations Pressure Air Temp Water Temp Dewpoint Dewpoint Depression Visibility Wind Speed Wind Dir Waves Ship Positions

Malcolm Miller

Last reported at 2017-Oct-15 07:09 UTC. Time now 2017-Oct-20 19:35 UTC.
Position N 35°31' E 024°32'.

Length 47 m; draft 5 m.

Type: Sailing vessel. MMSI: 235111139.

Date/timePositionNaut miles runAvg speedWind from/ knotsBaromVisibWave heightAir tempDewpointWater temp
2017-Oct-15 07:09N 35°31' E 024°32'1 5.7
2017-Oct-15 07:00N 35°31' E 024°31'5 8.1
2017-Oct-15 06:26N 35°32' E 024°26'3 6.4
2017-Oct-15 06:00N 35°32' E 024°22'  
2017-Oct-10 20:23N 37°51' E 015°58'4 6.7
2017-Oct-10 19:47N 37°52' E 015°53'5 6.6
2017-Oct-10 19:00N 37°54' E 015°47'33 5.9
2017-Oct-10 13:24N 38°22' E 015°24'22 2.2
2017-Oct-10 03:35N 38°29' E 014°58'0 0.0
2017-Oct-10 03:08N 38°29' E 014°58'0 0.1
2017-Oct-10 02:53N 38°29' E 014°58'0 0.0
2017-Oct-10 02:26N 38°29' E 014°58'0 0.1
2017-Oct-10 00:44N 38°28' E 014°57'0 0.0
2017-Oct-09 21:42N 38°28' E 014°57'0 2.4
2017-Oct-09 21:29N 38°28' E 014°58'3 5.0
2017-Oct-09 20:53N 38°26' E 014°55'41 6.3
2017-Oct-09 14:24N 38°28' E 014°02'4 7.0
2017-Oct-09 13:47N 38°29' E 013°57'2 5.8
2017-Oct-09 13:27N 38°30' E 013°55'3 5.2
2017-Oct-09 12:51N 38°30' E 013°51'2 5.2
2017-Oct-09 12:30N 38°31' E 013°48'3 6.6
2017-Oct-09 12:00N 38°31' E 013°44'4 7.8
2017-Oct-09 11:26N 38°32' E 013°39'3 7.3
2017-Oct-09 11:00N 38°33' E 013°35'4 7.8
2017-Oct-09 10:28N 38°34' E 013°30'4 8.1
2017-Oct-09 10:00N 38°34' E 013°25'3 6.8
2017-Oct-09 09:30N 38°35' E 013°21'177 7.9
2017-Oct-08 11:01N 39°03' E 009°36'2 6.9
2017-Oct-08 10:43N 39°04' E 009°33'2 7.4
2017-Oct-08 10:29N 39°04' E 009°31'4 7.6
2017-Oct-08 10:00N 39°05' E 009°26'4 7.7
2017-Oct-08 09:29N 39°06' E 009°22'4 7.6
2017-Oct-08 09:00N 39°07' E 009°17'4 7.1
2017-Oct-08 08:30N 39°09' E 009°13'4 7.4
2017-Oct-08 08:00N 39°10' E 009°08'3 6.1
2017-Oct-08 07:30N 39°13' E 009°07'0 0.2
2017-Oct-08 06:58N 39°13' E 009°07'0 0.0
2017-Oct-08 06:29N 39°13' E 009°07'0 0.0
2017-Oct-08 06:00N 39°13' E 009°07'0 0.0
2017-Oct-08 05:29N 39°13' E 009°07'0 0.0
2017-Oct-08 05:00N 39°13' E 009°07'0 0.0
2017-Oct-08 04:27N 39°13' E 009°07'0 0.0
2017-Oct-08 04:01N 39°13' E 009°07'0 0.0
2017-Oct-08 03:27N 39°13' E 009°07'0 0.0
2017-Oct-08 02:58N 39°13' E 009°07'0 0.0
2017-Oct-08 02:26N 39°13' E 009°07'0 0.0
2017-Oct-08 01:57N 39°13' E 009°07'0 0.0
2017-Oct-08 01:28N 39°13' E 009°07'0 0.0
2017-Oct-08 00:58N 39°13' E 009°07'0 0.0
2017-Oct-08 00:28N 39°13' E 009°07'0 0.0
2017-Oct-07 23:58N 39°13' E 009°07'0 0.0
2017-Oct-07 23:28N 39°13' E 009°07'0 0.0
2017-Oct-07 22:58N 39°13' E 009°07'0 0.0
2017-Oct-07 22:28N 39°13' E 009°07'0 0.0
2017-Oct-07 21:58N 39°13' E 009°07'0 0.0
2017-Oct-07 21:27N 39°13' E 009°07'0 0.0
2017-Oct-07 20:52N 39°13' E 009°07'0 0.0
2017-Oct-07 20:26N 39°13' E 009°07'0 0.0
2017-Oct-07 19:56N 39°13' E 009°07'0 0.0
2017-Oct-07 19:22N 39°13' E 009°07'0 0.0
2017-Oct-07 18:57N 39°13' E 009°07'0 0.0
2017-Oct-07 18:28N 39°13' E 009°07'0 0.0
2017-Oct-07 17:56N 39°13' E 009°07'0 0.0
2017-Oct-07 17:28N 39°13' E 009°07'0 0.0
2017-Oct-07 16:57N 39°13' E 009°07'0 0.0
2017-Oct-07 16:28N 39°13' E 009°07'0 0.0
2017-Oct-07 15:57N 39°13' E 009°07'0 0.0
2017-Oct-07 15:26N 39°13' E 009°07'0 0.0
2017-Oct-07 14:56N 39°13' E 009°07'0 0.0
2017-Oct-07 14:27N 39°13' E 009°07'0 0.0
2017-Oct-07 13:58N 39°13' E 009°07'0 0.0
2017-Oct-07 13:27N 39°13' E 009°07'0 0.0
2017-Oct-07 12:58N 39°13' E 009°07'0 0.0
2017-Oct-07 12:27N 39°13' E 009°07'0 0.0
2017-Oct-07 11:57N 39°13' E 009°07'0 0.0
2017-Oct-07 11:27N 39°13' E 009°07'0 0.0
2017-Oct-07 10:56N 39°13' E 009°07'0 0.0
2017-Oct-07 10:27N 39°13' E 009°07'0 0.0
2017-Oct-07 09:57N 39°13' E 009°07'0 0.0
2017-Oct-07 09:27N 39°13' E 009°07'0 0.0
2017-Oct-07 08:56N 39°13' E 009°07'0 0.0
2017-Oct-07 08:28N 39°13' E 009°07'0 0.0
2017-Oct-07 08:00N 39°13' E 009°07'0 0.0
2017-Oct-07 07:21N 39°13' E 009°07'0 0.0
2017-Oct-07 07:01N 39°13' E 009°07'0 0.0
2017-Oct-07 06:28N 39°13' E 009°07'0 0.0
2017-Oct-07 06:00N 39°13' E 009°07'0 0.0
2017-Oct-07 05:30N 39°13' E 009°07'0 0.0
2017-Oct-07 04:58N 39°13' E 009°07'0 0.0
2017-Oct-07 04:30N 39°13' E 009°07'0 0.0
2017-Oct-07 04:00N 39°13' E 009°07'0 0.0
2017-Oct-07 03:30N 39°13' E 009°07'0 0.0
2017-Oct-07 03:00N 39°13' E 009°07'0 0.0
2017-Oct-07 02:28N 39°13' E 009°07'0 0.0
2017-Oct-07 02:00N 39°13' E 009°07'0 0.0
2017-Oct-07 01:28N 39°13' E 009°07'0 0.0
2017-Oct-07 01:01N 39°13' E 009°07'0 0.0
2017-Oct-07 00:30N 39°13' E 009°07'0 0.0
2017-Oct-06 23:58N 39°13' E 009°07'0 0.0
2017-Oct-06 23:27N 39°13' E 009°07'0 0.0
2017-Oct-06 22:55N 39°13' E 009°07'0 0.0
2017-Oct-06 22:28N 39°13' E 009°07'0 0.0
2017-Oct-06 22:00N 39°13' E 009°07'0 0.0
2017-Oct-06 21:27N 39°13' E 009°07'0 0.0
2017-Oct-06 21:00N 39°13' E 009°07'0 0.0
2017-Oct-06 20:29N 39°13' E 009°07'0 0.0
2017-Oct-06 19:59N 39°13' E 009°07'0 0.0
2017-Oct-06 19:31N 39°13' E 009°07'0 0.0
2017-Oct-06 18:55N 39°13' E 009°07'0 0.0
2017-Oct-06 18:30N 39°13' E 009°07'0 0.0
2017-Oct-06 17:58N 39°13' E 009°07'0 0.0
2017-Oct-06 17:30N 39°13' E 009°07'0 0.0
2017-Oct-06 17:00N 39°13' E 009°07'0 0.0
2017-Oct-06 16:31N 39°13' E 009°07'0 0.0
2017-Oct-06 16:00N 39°13' E 009°07'0 0.0
2017-Oct-06 15:30N 39°13' E 009°07'0 0.0
2017-Oct-06 15:00N 39°13' E 009°07'0 0.0
2017-Oct-06 14:30N 39°13' E 009°07'0 0.0
2017-Oct-06 14:00N 39°13' E 009°07'0 0.0
2017-Oct-06 13:30N 39°13' E 009°07'0 0.0
2017-Oct-06 13:00N 39°13' E 009°07'0 0.0
2017-Oct-06 12:29N 39°13' E 009°07'0 0.0
2017-Oct-06 12:00N 39°13' E 009°07'0 0.2
2017-Oct-06 11:31N 39°13' E 009°07'3 5.1
2017-Oct-06 11:00N 39°10' E 009°07'3 5.9
2017-Oct-06 10:30N 39°07' E 009°07'3 6.1
2017-Oct-06 10:01N 39°04' E 009°06'4 7.5
2017-Oct-06 09:29N 39°01' E 009°04'4 6.8
2017-Oct-06 08:58N 38°58' E 009°01'3 6.4
2017-Oct-06 08:31N 38°56' E 008°58'9 7.7
2017-Oct-06 07:20N 38°51' E 008°49'  

Dump ship's entire track history